Forest Acres, South Carolina
Current Conditions -  °F | °C
As of 1:53 PM on Monday 20 Oct 2014 (Local Time) from KCUB Reporting Station
Clear Clear  
Wind Chill: 72°   Ceiling: Unl
Heat Index: 72°   Visibility: 10mi
Dew Point: 49°   Wind: 8mph
Humidity: 44%   Direction: 260°W
Pressure: 30.06"   Gusts: NA
Location:  34.025°N, 80.9562°W
Report Text: KCUB 201753Z AUTO 26007KT 10SM CLR 22/09 A3006 RMK AO2 SLP177 T02220094 10228 20078 58031
Loading
Personal Weather Stations






























Interactive Weather Map
Tropical Storm Tracking
New forecast layout! Learn more

10-Day Weather Forecast

Advertisements
Track Severe Weather on mobile